Time;durP1;ratioP1;P1;durP2;ratioP2;P2;SDS_P1;SDS_P2;PMS_P1;PMS_P2;Temp;Humidity;BMP_temperature;BMP_pressure;BME280_temperature;BME280_humidity;BME280_pressure;Samples;Min_cycle;Max_cycle;Signal;HPM_P1;HPM_P2
2024/04/12 00:01:03;;;;;;;;;5.67;4.00;;;;;24.32;43.86;103077.34;5184071;27;43979;-78
2024/04/12 00:03:29;;;;;;;;;4.00;4.00;;;;;24.35;43.55;103081.53;5183624;27;45582;-78
2024/04/12 00:05:57;;;;;;;;;3.67;2.00;;;;;24.34;43.03;103086.03;5183306;27;43781;-78
2024/04/12 00:08:24;;;;;;;;;2.67;2.33;;;;;24.25;43.94;103071.69;5183779;27;43960;-79
2024/04/12 00:10:51;;;;;;;;;3.33;3.33;;;;;24.31;44.68;103077.47;5183768;27;43792;-79
2024/04/12 00:13:16;;;;;;;;;2.00;2.00;;;;;24.28;43.23;103070.63;5183223;27;45744;-77
2024/04/12 00:15:42;;;;;;;;;7.33;2.00;;;;;24.33;43.28;103083.50;5183505;27;43939;-78
2024/04/12 00:18:07;;;;;;;;;3.00;3.00;;;;;24.29;44.00;103081.13;5183911;27;43974;-78
2024/04/12 00:20:35;;;;;;;;;2.67;2.67;;;;;24.01;43.55;103033.09;5183182;27;43932;-78
2024/04/12 00:23:02;;;;;;;;;2.33;2.33;;;;;24.33;44.12;103080.84;5183185;27;44840;-79
2024/04/12 00:25:29;;;;;;;;;2.67;2.67;;;;;24.33;43.19;103089.66;5183398;27;43856;-79
2024/04/12 00:27:55;;;;;;;;;5.33;3.67;;;;;24.20;42.58;103065.16;5183498;27;43980;-78
2024/04/12 00:30:41;;;;;;;;;4.00;2.00;;;;;24.33;44.12;103080.84;5183495;27;44027;-79
2024/04/12 00:33:12;;;;;;;;;3.00;3.00;;;;;24.27;43.05;103068.94;5182558;27;45817;-79
2024/04/12 00:35:41;;;;;;;;;3.00;3.00;;;;;24.03;44.52;103025.81;5183326;27;43767;-79
2024/04/12 00:38:09;;;;;;;;;3.00;3.00;;;;;24.20;43.57;103057.19;5183391;27;43868;-77
2024/04/12 00:40:46;;;;;;;;;3.00;3.00;;;;;24.28;43.00;103073.28;5183343;27;43904;-79
2024/04/12 00:43:20;;;;;;;;;4.00;4.00;;;;;24.24;43.35;103055.91;5182795;27;45748;-78
2024/04/12 00:45:48;;;;;;;;;2.33;2.33;;;;;24.29;43.33;103074.97;5182818;27;44031;-78
2024/04/12 00:48:21;;;;;;;;;2.67;2.67;;;;;24.29;43.67;103064.31;5182751;27;44539;-78
2024/04/12 00:50:50;;;;;;;;;2.00;2.00;;;;;24.16;44.19;103044.16;5183194;27;43886;-78
2024/04/12 00:53:22;;;;;;;;;3.00;3.00;;;;;24.29;44.17;103057.19;5182552;27;45649;-78
2024/04/12 00:56:00;;;;;;;;;3.67;3.67;;;;;24.16;43.62;103033.50;5182660;27;43881;-78
2024/04/12 00:58:35;;;;;;;;;3.67;3.67;;;;;24.25;43.65;103039.78;5182531;27;43910;-77
2024/04/12 01:01:11;;;;;;;;;3.00;3.00;;;;;24.30;44.41;103044.72;5182637;27;43871;-78
2024/04/12 01:03:46;;;;;;;;;4.00;3.00;;;;;24.26;44.14;103037.97;5182094;27;45892;-78
2024/04/12 01:06:20;;;;;;;;;4.33;3.00;;;;;24.12;42.74;103018.84;5182665;27;44092;-78
2024/04/12 01:08:46;;;;;;;;;3.33;3.33;;;;;24.17;43.86;103015.75;5183268;27;43782;-78
2024/04/12 01:11:15;;;;;;;;;3.00;3.00;;;;;24.21;43.94;103017.13;5185895;27;43981;-78
2024/04/12 01:13:41;;;;;;;;;4.00;2.67;;;;;24.21;44.36;103014.47;5185469;27;43936;-78
2024/04/12 01:16:07;;;;;;;;;4.00;4.00;;;;;24.26;44.51;103028.22;5185808;27;43971;-77
2024/04/12 01:18:32;;;;;;;;;2.33;2.33;;;;;24.30;43.61;103028.78;5185392;27;44035;-77
2024/04/12 01:21:10;;;;;;;;;7.33;5.00;;;;;24.17;43.65;103016.56;5185734;27;43963;-77
2024/04/12 01:23:44;;;;;;;;;3.33;3.33;;;;;24.16;42.80;103006.06;5185640;27;45007;-78
2024/04/12 01:26:11;;;;;;;;;2.33;2.33;;;;;24.08;44.36;102996.16;5185508;27;43954;-78
2024/04/12 01:28:37;;;;;;;;;3.67;3.67;;;;;24.23;44.08;103017.81;5185679;27;44030;-78
2024/04/12 01:31:03;;;;;;;;;4.00;3.00;;;;;24.27;44.29;103018.41;5185205;27;43843;-77
2024/04/12 01:33:31;;;;;;;;;3.00;3.00;;;;;24.21;43.75;103010.97;5185297;27;44086;-78
2024/04/12 01:36:04;;;;;;;;;4.33;4.00;;;;;24.22;43.46;103012.66;5185548;27;43801;-78
2024/04/12 01:38:31;;;;;;;;;3.67;3.67;;;;;24.16;43.19;103004.25;5185552;27;43951;-77
2024/04/12 01:40:57;;;;;;;;;4.00;4.00;;;;;24.27;43.78;103013.09;5185863;27;43995;-78
2024/04/12 01:43:26;;;;;;;;;5.67;4.00;;;;;24.25;43.78;103018.50;5185407;27;44055;-78
2024/04/12 01:45:54;;;;;;;;;4.67;4.67;;;;;24.27;42.99;103024.56;5184997;27;43859;-78
2024/04/12 01:48:22;;;;;;;;;5.00;2.33;;;;;24.27;43.12;103021.06;5185579;27;43825;-78
2024/04/12 01:50:51;;;;;;;;;3.00;3.00;;;;;24.20;43.24;103009.31;5185479;27;43935;-77
2024/04/12 01:53:17;;;;;;;;;3.00;3.00;;;;;24.25;42.96;103015.03;5185187;27;44890;-77
2024/04/12 01:55:45;;;;;;;;;3.00;3.00;;;;;24.26;43.33;103014.03;5185309;27;43865;-77
2024/04/12 01:58:11;;;;;;;;;4.00;3.00;;;;;24.17;43.95;103000.59;5185465;27;43883;-78
2024/04/12 02:00:36;;;;;;;;;3.33;2.67;;;;;24.21;43.42;103000.31;5184927;27;43948;-79
2024/04/12 02:03:02;;;;;;;;;5.67;4.00;;;;;24.27;43.09;103018.41;5185102;27;45008;-78
2024/04/12 02:05:34;;;;;;;;;4.00;4.00;;;;;24.27;44.02;103015.75;5185650;27;43820;-78
2024/04/12 02:08:19;;;;;;;;;3.00;3.00;;;;;24.15;43.74;102999.06;5185291;27;43921;-78
2024/04/12 02:10:48;;;;;;;;;3.67;3.67;;;;;24.27;43.49;103018.41;5185188;27;44063;-78
2024/04/12 02:13:23;;;;;;;;;5.33;4.00;;;;;24.06;43.29;102979.50;5184834;27;46016;-78
2024/04/12 02:15:53;;;;;;;;;4.67;4.00;;;;;24.17;44.19;103005.91;5184674;27;43920;-77
2024/04/12 02:18:20;;;;;;;;;4.00;2.00;;;;;24.24;43.75;103002.69;5185331;27;44036;-78
2024/04/12 02:20:46;;;;;;;;;4.00;4.00;;;;;24.23;44.28;103009.00;5184819;27;43930;-78
2024/04/12 02:23:13;;;;;;;;;6.67;4.00;;;;;24.25;44.37;103010.53;5184917;27;45837;-77
2024/04/12 02:25:40;;;;;;;;;6.00;5.00;;;;;24.07;43.62;102983.84;5185029;27;43880;-77
2024/04/12 02:28:11;;;;;;;;;4.00;3.33;;;;;24.25;44.50;103009.72;5185363;27;43802;-77
2024/04/12 02:30:43;;;;;;;;;3.00;3.00;;;;;24.25;43.24;103009.72;5184591;27;44056;-77
2024/04/12 02:33:16;;;;;;;;;3.00;3.00;;;;;24.21;44.31;103008.31;5184843;27;44787;-77
2024/04/12 02:35:45;;;;;;;;;3.67;3.67;;;;;24.20;43.23;103012.78;5184833;27;43746;-77
2024/04/12 02:38:15;;;;;;;;;4.00;3.67;;;;;24.17;43.00;103008.56;5185266;27;43951;-77
2024/04/12 02:40:45;;;;;;;;;2.00;2.00;;;;;24.25;43.75;103021.16;5183084;27;44093;-78
2024/04/12 02:43:15;;;;;;;;;3.00;3.00;;;;;24.12;43.94;102986.91;5184332;27;44980;-78
2024/04/12 02:45:55;;;;;;;;;3.00;3.00;;;;;24.23;43.82;103011.66;5184649;27;43857;-78
2024/04/12 02:48:21;;;;;;;;;3.00;3.00;;;;;24.23;44.67;103009.84;5185026;27;44041;-77
2024/04/12 02:50:53;;;;;;;;;2.67;2.67;;;;;24.24;43.89;103010.69;5183173;27;44123;-78
2024/04/12 02:53:23;;;;;;;;;3.00;3.00;;;;;24.12;43.61;102994.91;5184582;27;44782;-77
2024/04/12 02:56:11;;;;;;;;;4.00;3.00;;;;;24.24;42.96;103014.19;5184715;27;43952;-78
2024/04/12 02:58:41;;;;;;;;;4.00;3.67;;;;;24.24;43.51;103014.19;5184519;27;44171;-78
2024/04/12 03:01:10;;;;;;;;;4.00;4.00;;;;;24.24;43.35;103021.31;5183011;27;44000;-77
2024/04/12 03:03:45;;;;;;;;;5.33;4.00;;;;;24.12;43.15;103007.34;5184590;27;44823;-77
2024/04/12 03:06:12;;;;;;;;;3.33;3.33;;;;;24.16;43.54;103008.72;5184684;27;43999;-77
2024/04/12 03:08:43;;;;;;;;;3.00;3.00;;;;;24.24;44.41;103024.81;5184748;27;44086;-78
2024/04/12 03:11:22;;;;;;;;;4.00;4.00;;;;;24.21;44.46;103016.28;5184864;27;43993;-78
2024/04/12 03:13:50;;;;;;;;;4.00;2.00;;;;;24.23;43.21;103011.66;5183782;27;45892;-77
2024/04/12 03:16:17;;;;;;;;;4.33;3.00;;;;;24.24;44.50;103023.97;5184579;27;44054;-78
2024/04/12 03:18:46;;;;;;;;;5.67;4.67;;;;;24.24;43.32;103019.50;5184793;27;43936;-78
2024/04/12 03:21:13;;;;;;;;;6.33;4.00;;;;;23.90;44.24;102958.78;5184676;27;44010;-78
2024/04/12 03:23:43;;;;;;;;;4.33;4.00;;;;;24.15;43.50;103007.88;5182587;27;45055;-78
2024/04/12 03:26:09;;;;;;;;;2.67;2.67;;;;;24.24;43.79;103018.66;5184447;27;43793;-78
2024/04/12 03:28:35;;;;;;;;;5.00;3.33;;;;;24.18;43.76;103007.59;5184065;27;43917;-78
2024/04/12 03:31:07;;;;;;;;;3.00;3.00;;;;;24.24;44.53;103018.66;5183799;27;44145;-78
2024/04/12 03:33:33;;;;;;;;;3.67;3.67;;;;;24.14;43.39;103008.03;5183921;27;45605;-77
2024/04/12 03:36:25;;;;;;;;;3.00;3.00;;;;;24.24;43.34;103026.63;5184260;27;43782;-78
2024/04/12 03:38:45;;;;;;;;;4.67;3.00;;;;;24.04;43.69;102992.94;5184194;27;43915;-78
2024/04/12 03:41:11;;;;;;;;;3.33;2.67;;;;;24.18;44.37;103012.09;5183930;27;44039;-78
2024/04/12 03:43:36;;;;;;;;;4.00;4.00;;;;;24.11;42.84;102995.03;5184067;27;44884;-77
2024/04/12 03:46:02;;;;;;;;;4.67;2.67;;;;;24.24;44.57;103016.00;5184082;27;43924;-77
2024/04/12 03:48:30;;;;;;;;;2.67;2.33;;;;;24.13;43.59;102996.56;5184124;27;44046;-77
2024/04/12 03:51:01;;;;;;;;;5.00;4.00;;;;;24.22;42.99;103010.84;5184230;27;44035;-78
2024/04/12 03:53:30;;;;;;;;;3.00;3.00;;;;;24.09;43.86;102994.34;5183900;27;45804;-78
2024/04/12 03:55:56;;;;;;;;;4.00;4.00;;;;;24.22;44.67;103018.81;5183518;27;44033;-78
2024/04/12 03:58:22;;;;;;;;;4.00;3.00;;;;;24.23;43.86;103012.50;5183852;27;43940;-77
2024/04/12 04:00:51;;;;;;;;;6.67;5.00;;;;;24.14;43.17;103003.56;5184108;27;44051;-78
2024/04/12 04:03:32;;;;;;;;;4.00;4.00;;;;;24.23;44.20;103019.63;5183722;27;45159;-78
2024/04/12 04:06:11;;;;;;;;;4.00;3.00;;;;;24.22;43.70;103018.81;5183563;27;43984;-79
2024/04/12 04:08:49;;;;;;;;;3.00;3.00;;;;;24.17;43.21;103000.59;5183708;27;44036;-79
2024/04/12 04:11:15;;;;;;;;;4.33;4.33;;;;;24.09;44.52;102984.53;5183370;27;43968;-78
2024/04/12 04:13:41;;;;;;;;;4.00;4.00;;;;;24.22;43.00;103004.66;5183150;27;44840;-78
2024/04/12 04:16:07;;;;;;;;;2.67;2.67;;;;;24.05;44.05;102983.13;5183478;27;43891;-78
2024/04/12 04:18:32;;;;;;;;;4.00;4.00;;;;;24.16;43.77;102996.28;5183657;27;43942;-77
2024/04/12 04:21:07;;;;;;;;;4.00;4.00;;;;;24.16;43.93;103003.41;5183729;27;43846;-78
2024/04/12 04:23:39;;;;;;;;;2.67;2.67;;;;;24.16;44.06;102998.94;5183585;27;44853;-78
2024/04/12 04:26:08;;;;;;;;;6.00;3.33;;;;;24.20;44.65;103002.13;5182807;27;43976;-77
2024/04/12 04:28:34;;;;;;;;;3.00;3.00;;;;;24.21;43.37;103009.16;5183497;27;44065;-78
2024/04/12 04:31:05;;;;;;;;;5.00;2.33;;;;;24.18;43.00;103001.44;5183174;27;43867;-77
2024/04/12 04:33:34;;;;;;;;;3.00;3.00;;;;;24.16;43.56;102998.09;5183204;27;45056;-77
2024/04/12 04:36:08;;;;;;;;;4.00;4.00;;;;;24.16;43.63;103004.25;5182940;27;43804;-77
2024/04/12 04:38:43;;;;;;;;;4.00;4.00;;;;;24.20;44.31;103010.13;5183222;27;43920;-78
2024/04/12 04:41:08;;;;;;;;;4.00;3.67;;;;;24.13;43.92;102993.91;5182756;27;44054;-78
2024/04/12 04:43:34;;;;;;;;;5.67;4.00;;;;;24.18;44.29;103002.28;5184362;27;43943;-78
2024/04/12 04:46:15;;;;;;;;;4.00;4.00;;;;;24.11;43.18;102990.53;5185910;27;43920;-78
2024/04/12 04:48:40;;;;;;;;;3.00;3.00;;;;;24.06;43.44;102983.00;5186063;27;44027;-78
2024/04/12 04:51:06;;;;;;;;;3.67;3.67;;;;;24.20;44.27;103009.31;5186048;27;43856;-78
2024/04/12 04:53:31;;;;;;;;;4.00;4.00;;;;;24.19;44.22;103000.47;5185860;27;44837;-78
2024/04/12 04:56:01;;;;;;;;;3.00;3.00;;;;;24.16;42.94;102996.28;5183815;27;43915;-77
2024/04/12 04:58:28;;;;;;;;;3.67;3.67;;;;;24.11;43.51;102987.03;5185730;27;44059;-77
2024/04/12 05:00:53;;;;;;;;;5.00;5.00;;;;;24.04;44.59;102981.47;5185824;27;43920;-78
2024/04/12 05:03:19;;;;;;;;;5.00;5.00;;;;;24.19;43.63;103013.78;5183923;27;44522;-78
2024/04/12 05:05:49;;;;;;;;;3.00;3.00;;;;;24.17;43.40;103013.09;5185654;27;44020;-78
2024/04/12 05:08:16;;;;;;;;;4.33;4.00;;;;;24.12;43.78;103005.53;5185539;27;43930;-79
2024/04/12 05:10:42;;;;;;;;;4.00;4.00;;;;;24.10;43.26;103004.81;5185742;27;44186;-79
2024/04/12 05:13:07;;;;;;;;;6.00;4.00;;;;;24.19;43.36;103016.44;5185453;27;44754;-78
2024/04/12 05:18:08;;;;;;;;;2.33;2.00;;;;;24.20;44.07;103025.25;5185921;27;43920;-78
2024/04/12 05:20:41;;;;;;;;;4.00;4.00;;;;;24.18;43.87;103034.19;5185682;27;43908;-78
2024/04/12 05:23:11;;;;;;;;;4.00;3.00;;;;;24.18;43.48;103036.88;5184886;27;45045;-78
2024/04/12 05:25:54;;;;;;;;;3.00;3.00;;;;;24.14;44.51;103034.63;5185454;27;43901;-78
2024/04/12 05:28:20;;;;;;;;;3.00;3.00;;;;;24.13;44.68;103030.28;5185715;27;44059;-79
2024/04/12 05:30:47;;;;;;;;;3.67;3.67;;;;;24.18;43.37;103039.53;5185756;27;43907;-78
2024/04/12 05:33:16;;;;;;;;;5.00;5.00;;;;;24.15;43.79;103028.31;5185336;27;44141;-78
2024/04/12 05:35:42;;;;;;;;;4.33;4.33;;;;;24.17;44.04;103024.53;5185470;27;44004;-75
2024/04/12 05:38:08;;;;;;;;;4.00;4.00;;;;;24.08;44.25;103017.41;5185133;27;43998;-78
2024/04/12 05:40:45;;;;;;;;;3.00;3.00;;;;;24.15;43.40;103023.00;5185041;27;44374;-75
2024/04/12 05:43:13;;;;;;;;;6.00;4.00;;;;;24.21;44.39;103032.22;5216167;27;44973;-79
2024/04/12 05:45:44;;;;;;;;;3.00;3.00;;;;;24.23;43.96;103035.59;5187722;27;43876;-77
2024/04/12 05:48:13;;;;;;;;;3.00;3.00;;;;;24.25;44.73;103042.44;5185424;27;43958;-86
2024/04/12 05:50:42;;;;;;;;;3.67;3.00;;;;;24.26;43.95;103044.16;5185488;27;44150;-84
2024/04/12 05:53:10;;;;;;;;;4.00;3.00;;;;;24.27;44.19;103048.53;5185180;27;45102;-77
2024/04/12 05:55:52;;;;;;;;;3.33;3.00;;;;;24.27;43.32;103045.84;5182643;27;43972;-83
2024/04/12 05:58:19;;;;;;;;;5.00;3.00;;;;;24.26;42.82;103040.63;5180448;27;43857;-86
2024/04/12 06:00:47;;;;;;;;;4.33;4.33;;;;;24.18;43.00;103031.53;5181642;27;44127;-84
2024/04/12 06:03:16;;;;;;;;;4.67;3.33;;;;;24.23;43.26;103041.75;5184796;27;45603;-84
2024/04/12 06:05:55;;;;;;;;;7.33;6.00;;;;;24.27;43.03;103050.34;5178287;27;43855;-82
2024/04/12 06:08:22;;;;;;;;;3.00;3.00;;;;;24.25;43.55;103047.75;5184181;27;44014;-81
2024/04/12 06:10:50;;;;;;;;;3.00;3.00;;;;;24.24;44.23;103047.91;5184524;27;43856;-85
2024/04/12 06:13:17;;;;;;;;;4.33;4.00;;;;;24.26;43.83;103052.16;5184499;27;45231;-87
2024/04/12 06:15:43;;;;;;;;;5.33;5.33;;;;;24.32;44.22;103065.88;5175782;27;44086;-82
2024/04/12 06:18:09;;;;;;;;;4.67;4.67;;;;;24.09;43.12;103032.41;5185594;27;43924;-80
2024/04/12 06:20:35;;;;;;;;;5.00;5.00;;;;;24.32;43.76;103072.03;5184267;27;43912;-81
2024/04/12 06:23:06;;;;;;;;;5.67;5.67;;;;;24.31;43.31;103064.16;5183940;27;44803;-81
2024/04/12 06:25:43;;;;;;;;;4.00;4.00;;;;;24.35;43.74;103070.91;5184994;27;43873;-75
2024/04/12 06:28:12;;;;;;;;;4.33;3.00;;;;;24.37;43.62;103066.28;5185517;27;44009;-81
2024/04/12 06:30:47;;;;;;;;;5.00;5.00;;;;;24.39;43.31;103080.28;5185113;27;43896;-79
2024/04/12 06:33:13;;;;;;;;;5.00;3.33;;;;;24.33;43.61;103072.88;5184812;27;45995;-78
2024/04/12 06:35:44;;;;;;;;;4.00;3.00;;;;;24.36;43.22;103077.88;5184640;27;43987;-79
2024/04/12 06:38:10;;;;;;;;;4.33;3.67;;;;;24.43;44.03;103075.50;5184995;27;43966;-79
2024/04/12 06:40:37;;;;;;;;;3.00;3.00;;;;;24.53;44.00;103089.66;5184857;27;43999;-79
2024/04/12 06:43:06;;;;;;;;;2.67;2.67;;;;;24.56;44.10;103092.03;5184799;27;43876;-78
2024/04/12 06:45:41;;;;;;;;;5.33;2.67;;;;;24.60;43.99;103096.06;5184791;27;44147;-78
2024/04/12 06:48:16;;;;;;;;;4.33;4.33;;;;;24.54;43.35;103080.66;5185226;27;43676;-78
2024/04/12 06:50:54;;;;;;;;;4.67;3.00;;;;;24.59;43.88;103089.06;5184342;27;43931;-78
2024/04/12 06:53:23;;;;;;;;;4.00;4.00;;;;;24.63;43.29;103097.59;5184701;27;44808;-79
2024/04/12 06:55:49;;;;;;;;;5.00;2.67;;;;;24.71;43.89;103103.06;5184714;27;43857;-79
2024/04/12 06:58:17;;;;;;;;;4.67;4.67;;;;;24.58;43.33;103078.56;5184759;27;43884;-78
2024/04/12 07:00:44;;;;;;;;;4.00;3.67;;;;;24.69;43.02;103088.22;5184910;27;44032;-79
2024/04/12 07:03:15;;;;;;;;;6.00;4.67;;;;;24.76;43.40;103102.63;5184465;27;44856;-78
2024/04/12 07:05:47;;;;;;;;;4.67;4.67;;;;;24.68;44.32;103095.34;5183520;27;44013;-79
2024/04/12 07:08:16;;;;;;;;;4.00;4.00;;;;;24.68;43.79;103082.03;5183951;27;43936;-79
2024/04/12 07:10:41;;;;;;;;;5.00;3.33;;;;;24.73;43.88;103090.44;5184717;27;43967;-79
2024/04/12 07:13:07;;;;;;;;;3.33;3.33;;;;;24.81;44.12;103097.69;5184516;27;44019;-79
2024/04/12 07:15:33;;;;;;;;;3.00;3.00;;;;;24.82;43.92;103099.41;5184379;27;43920;-78
2024/04/12 07:18:02;;;;;;;;;3.00;3.00;;;;;24.82;43.73;103091.41;5184878;27;43938;-79
2024/04/12 07:20:33;;;;;;;;;7.00;4.00;;;;;24.77;43.04;103084.84;5184155;27;43993;-79
2024/04/12 07:22:58;;;;;;;;;3.00;3.00;;;;;24.74;44.04;103081.47;5184373;27;44807;-78
2024/04/12 07:25:24;;;;;;;;;3.00;3.00;;;;;24.75;42.90;103084.97;5184335;27;43915;-78
2024/04/12 07:27:53;;;;;;;;;2.33;2.33;;;;;24.74;43.35;103085.97;5184863;27;44034;-78
2024/04/12 07:30:20;;;;;;;;;3.00;3.00;;;;;24.84;44.08;103099.25;5184577;27;43856;-79
2024/04/12 07:32:46;;;;;;;;;3.00;3.00;;;;;24.78;43.73;103087.34;5184094;27;44907;-78
2024/04/12 07:35:24;;;;;;;;;4.00;4.00;;;;;24.83;43.21;103090.41;5183953;27;44007;-79
2024/04/12 07:37:54;;;;;;;;;6.67;5.33;;;;;24.88;43.78;103089.16;5184325;27;43932;-79
2024/04/12 07:40:20;;;;;;;;;4.00;4.00;;;;;24.84;43.54;103092.09;5184225;27;44287;-78
2024/04/12 07:42:46;;;;;;;;;3.00;3.00;;;;;24.90;43.17;103100.50;5183934;27;45982;-78
2024/04/12 07:45:17;;;;;;;;;2.67;2.67;;;;;24.85;43.94;103088.44;5184602;27;43932;-79
2024/04/12 07:47:54;;;;;;;;;3.33;3.33;;;;;24.95;44.09;103099.06;5183789;27;44091;-78
2024/04/12 07:50:28;;;;;;;;;5.00;5.00;;;;;24.91;43.14;103088.84;5184136;27;43891;-78
2024/04/12 07:52:55;;;;;;;;;4.00;4.00;;;;;24.99;44.31;103094.28;5183955;27;44866;-78
2024/04/12 07:55:24;;;;;;;;;3.00;3.00;;;;;25.02;42.80;103104.69;5184046;27;43949;-79
2024/04/12 07:57:52;;;;;;;;;4.67;3.00;;;;;25.01;43.91;103095.00;5184310;27;44350;-79
2024/04/12 08:00:35;;;;;;;;;2.33;2.00;;;;;24.99;43.87;103088.09;5183782;27;43892;-79
2024/04/12 08:03:06;;;;;;;;;5.00;3.67;;;;;25.07;43.58;103106.91;5183272;27;45706;-79
2024/04/12 08:05:48;;;;;;;;;2.00;2.00;;;;;25.09;43.31;103106.75;5183720;27;43920;-79
2024/04/12 08:08:14;;;;;;;;;6.00;3.75;;;;;25.04;43.75;103096.53;5184143;27;44000;-79
2024/04/12 08:10:41;;;;;;;;;3.33;3.33;;;;;25.12;43.47;103109.97;5183659;27;43880;-79
2024/04/12 08:13:10;;;;;;;;;5.00;5.00;;;;;25.14;43.66;103110.66;5183504;27;45761;-79
2024/04/12 08:15:40;;;;;;;;;3.00;3.00;;;;;25.16;43.17;103114.00;5183278;27;44207;-77
2024/04/12 08:18:06;;;;;;;;;2.67;2.67;;;;;25.18;43.94;103117.38;5184352;27;43951;-78
2024/04/12 08:20:39;;;;;;;;;7.00;5.00;;;;;25.16;43.43;103111.34;5186352;27;43976;-78
2024/04/12 08:23:07;;;;;;;;;4.33;3.00;;;;;25.21;42.67;103110.06;5186153;27;43955;-78
2024/04/12 08:25:39;;;;;;;;;5.00;3.33;;;;;25.21;43.57;103115.41;5186218;27;43947;-78
2024/04/12 08:28:06;;;;;;;;;3.00;3.00;;;;;25.25;43.10;103109.63;5186275;27;44003;-78
2024/04/12 08:30:33;;;;;;;;;5.00;4.67;;;;;25.15;43.68;103092.84;5186641;27;43986;-78
2024/04/12 08:33:02;;;;;;;;;4.00;4.00;;;;;25.29;42.98;103110.19;5185298;27;44888;-78
2024/04/12 08:35:29;;;;;;;;;3.00;3.00;;;;;25.30;43.09;103111.84;5186301;27;43940;-78
2024/04/12 08:37:54;;;;;;;;;4.67;4.67;;;;;25.25;42.73;103104.31;5186124;27;43905;-77
2024/04/12 08:40:21;;;;;;;;;4.00;3.00;;;;;25.27;42.90;103098.81;5186067;27;43918;-78
2024/04/12 08:42:47;;;;;;;;;4.00;3.00;;;;;25.35;43.38;103108.72;5185919;27;45045;-77
2024/04/12 08:45:17;;;;;;;;;3.00;2.33;;;;;25.37;42.82;103112.09;5185934;27;43969;-78
2024/04/12 08:47:51;;;;;;;;;2.00;2.00;;;;;25.39;43.36;103102.13;5185825;27;44044;-78
2024/04/12 08:50:23;;;;;;;;;2.67;2.67;;;;;25.12;43.54;103059.34;5185952;27;43869;-79
2024/04/12 08:52:49;;;;;;;;;3.00;3.00;;;;;25.37;42.72;103104.13;5185851;27;44805;-78
2024/04/12 08:55:20;;;;;;;;;4.33;3.00;;;;;25.45;42.86;103114.84;5185846;27;43991;-79
2024/04/12 08:57:48;;;;;;;;;3.67;3.67;;;;;25.46;42.68;103111.22;5185987;27;44007;-78
2024/04/12 09:00:18;;;;;;;;;4.00;3.33;;;;;25.49;42.47;103118.91;5185516;27;43909;-78
2024/04/12 09:03:10;;;;;;;;;4.00;4.00;;;;;25.51;42.94;103118.75;5185738;27;45018;-78
2024/04/12 09:05:38;;;;;;;;;3.00;3.00;;;;;25.43;43.03;103098.19;5185817;27;44016;-78
2024/04/12 09:08:05;;;;;;;;;3.00;3.00;;;;;25.47;42.84;103102.25;5186036;27;44014;-78
2024/04/12 09:10:35;;;;;;;;;3.00;3.00;;;;;25.49;42.68;103096.75;5186277;27;44007;-78
2024/04/12 09:13:08;;;;;;;;;5.00;3.33;;;;;25.42;42.88;103079.69;5183659;27;45866;-78
2024/04/12 09:15:35;;;;;;;;;3.00;3.00;;;;;25.50;43.18;103098.44;5185035;27;43948;-79
2024/04/12 09:18:01;;;;;;;;;3.33;3.33;;;;;25.59;43.19;103115.34;5185746;27;44066;-79
2024/04/12 09:20:30;;;;;;;;;4.00;3.00;;;;;25.60;42.50;103109.03;5185837;27;43879;-78
2024/04/12 09:23:09;;;;;;;;;5.33;2.67;;;;;25.60;42.65;103111.69;5185311;27;44035;-78
2024/04/12 09:25:41;;;;;;;;;1.33;0.00;;;;;25.60;42.48;103107.22;5185637;27;43974;-78
2024/04/12 09:28:12;;;;;;;;;5.00;4.00;;;;;25.61;42.86;103108.88;5185719;27;44168;-77
2024/04/12 09:33:26;;;;;;;;;3.00;3.00;;;;;25.54;42.76;103075.81;5185294;27;43949;-77
2024/04/12 09:35:52;;;;;;;;;5.00;4.00;;;;;25.61;43.04;103084.88;5185417;27;44326;-78
2024/04/12 09:38:21;;;;;;;;;3.00;3.00;;;;;25.67;43.08;103091.44;5185590;27;43975;-78
2024/04/12 09:41:02;;;;;;;;;3.00;3.00;;;;;25.69;43.02;103092.13;5185653;27;43978;-78
2024/04/12 09:43:31;;;;;;;;;2.00;2.00;;;;;25.66;42.21;103089.75;5185397;27;44752;-78
2024/04/12 09:46:17;;;;;;;;;2.33;2.33;;;;;25.70;42.30;103092.97;5184769;27;43879;-77
2024/04/12 10:38:57;;;;;;;;;1.67;1.00;;;;;25.64;43.02;103059.75;5184876;27;44049;-77
2024/04/12 10:41:26;;;;;;;;;2.00;2.00;;;;;25.69;42.41;103070.81;5184554;27;43812;-78
2024/04/12 10:43:55;;;;;;;;;4.00;4.00;;;;;25.63;43.01;103068.75;5184564;27;43900;-78
2024/04/12 10:46:20;;;;;;;;;3.00;3.00;;;;;25.39;42.94;103024.88;5185018;27;44234;-78
2024/04/12 10:48:45;;;;;;;;;2.67;2.67;;;;;25.58;42.87;103050.53;5184608;27;44771;-78
2024/04/12 10:51:16;;;;;;;;;1.67;1.67;;;;;25.63;42.50;103058.91;5184803;27;43909;-78
2024/04/12 10:53:42;;;;;;;;;3.00;2.00;;;;;25.65;43.33;103069.44;5184818;27;44028;-78
2024/04/12 10:56:18;;;;;;;;;6.00;2.00;;;;;25.54;42.25;103050.97;5185040;27;43742;-78
2024/04/12 10:58:56;;;;;;;;;5.00;3.00;;;;;25.61;42.92;103050.22;5182725;27;45953;-78
2024/04/12 11:01:23;;;;;;;;;4.00;4.00;;;;;25.54;43.45;103041.16;5184763;27;43934;-77
2024/04/12 11:03:58;;;;;;;;;5.00;4.00;;;;;25.62;42.36;103053.75;5184697;27;43913;-77
2024/04/12 11:06:31;;;;;;;;;3.33;3.33;;;;;25.61;43.00;103049.38;5184720;27;43991;-78
2024/04/12 11:08:59;;;;;;;;;5.00;3.33;;;;;25.38;43.54;103013.34;5184454;27;45055;-78
2024/04/12 11:11:31;;;;;;;;;3.33;2.00;;;;;25.60;42.77;103040.56;5184282;27;44001;-77
2024/04/12 11:13:59;;;;;;;;;2.67;2.67;;;;;25.46;43.16;103025.94;5184570;27;43845;-78
2024/04/12 11:32:55;;;;;;;;;5.00;4.00;;;;;25.49;42.52;103017.63;5184544;27;43973;-77
2024/04/12 11:35:25;;;;;;;;;2.00;2.00;;;;;25.37;42.74;103003.69;5184616;27;43884;-77
2024/04/12 11:37:50;;;;;;;;;3.33;2.00;;;;;25.49;42.87;103016.78;5184499;27;44074;-78
2024/04/12 11:40:16;;;;;;;;;2.00;2.00;;;;;25.44;43.28;103011.09;5183735;27;45787;-79
2024/04/12 11:42:46;;;;;;;;;3.00;3.00;;;;;25.47;43.29;103016.13;5184100;27;44015;-75
2024/04/12 11:45:14;;;;;;;;;4.00;3.33;;;;;25.25;42.52;102976.41;5183012;27;43836;-80
2024/04/12 11:47:40;;;;;;;;;3.33;3.33;;;;;25.32;42.91;102991.81;5181715;27;43897;-80
2024/04/12 11:50:10;;;;;;;;;2.33;2.33;;;;;25.47;43.33;103008.13;5182780;27;45653;-79
2024/04/12 11:52:38;;;;;;;;;4.33;3.00;;;;;25.33;42.60;102982.81;5182681;27;43952;-79
2024/04/12 11:55:06;;;;;;;;;1.00;1.00;;;;;25.39;42.98;102996.41;5183574;27;43939;-79
2024/04/12 11:57:36;;;;;;;;;1.33;1.33;;;;;25.29;42.12;102987.63;5183000;27;43962;-79
2024/04/12 12:00:09;;;;;;;;;2.00;2.00;;;;;25.13;43.52;102958.97;5156552;27;44884;-80
2024/04/12 12:02:36;;;;;;;;;2.00;2.00;;;;;25.44;42.62;103000.41;5183161;27;43979;-79
2024/04/12 12:05:01;;;;;;;;;2.00;2.00;;;;;25.42;43.51;102997.91;5183832;27;43924;-80
2024/04/12 12:07:27;;;;;;;;;2.00;2.00;;;;;25.39;43.29;102988.41;5183468;27;44060;-80
2024/04/12 12:09:52;;;;;;;;;2.00;2.00;;;;;25.29;43.00;102974.31;5183253;27;44432;-79
2024/04/12 12:12:21;;;;;;;;;3.00;2.67;;;;;25.27;42.91;102970.94;5183547;27;43955;-79
2024/04/12 12:14:51;;;;;;;;;3.67;3.67;;;;;25.27;43.00;102962.94;5183646;27;44004;-79
2024/04/12 12:17:18;;;;;;;;;3.00;2.33;;;;;25.21;43.50;102961.75;5183606;27;44026;-79
2024/04/12 12:19:52;;;;;;;;;3.00;3.00;;;;;25.39;43.32;102983.06;5182177;27;45957;-80
2024/04/12 12:22:19;;;;;;;;;3.67;3.00;;;;;25.09;43.32;102941.59;5181690;27;44962;-79
2024/04/12 12:24:45;;;;;;;;;5.00;2.33;;;;;25.25;43.76;102957.78;5183418;27;44074;-85
2024/04/12 12:27:10;;;;;;;;;2.67;2.67;;;;;25.31;43.34;102976.81;5183673;27;43898;-87
2024/04/12 12:29:36;;;;;;;;;2.33;2.33;;;;;25.38;43.31;102970.72;5183259;27;45039;-85
2024/04/12 12:32:03;;;;;;;;;3.00;2.00;;;;;25.19;43.33;102945.03;5183065;27;43773;-85
2024/04/12 12:34:28;;;;;;;;;4.00;3.00;;;;;25.41;43.70;102977.59;5182986;27;43884;-86
2024/04/12 12:36:55;;;;;;;;;2.00;2.00;;;;;24.98;43.70;102908.88;5183523;27;43981;-85
2024/04/12 12:39:21;;;;;;;;;2.33;2.33;;;;;25.13;43.22;102927.88;5182644;27;45175;-85
2024/04/12 12:41:46;;;;;;;;;2.00;2.00;;;;;24.71;43.19;102847.53;5181876;27;44381;-86
2024/04/12 12:44:17;;;;;;;;;2.00;2.00;;;;;24.99;43.00;102899.88;5181594;27;44111;-86
2024/04/12 12:46:43;;;;;;;;;1.00;1.00;;;;;25.42;43.66;102951.78;5182845;27;43908;-85